Time;durP1;ratioP1;P1;durP2;ratioP2;P2;SDS_P1;SDS_P2;PMS_P1;PMS_P2;Temp;Humidity;BMP_temperature;BMP_pressure;BME280_temperature;BME280_humidity;BME280_pressure;Samples;Min_cycle;Max_cycle;Signal;HPM_P1;HPM_P2
2022/11/28 00:00:00;;;;;;;13.28;7.20;;;;;;;1.11;100.00;147949.31;1849869;76;20825;-64
2022/11/28 00:02:28;;;;;;;15.38;8.50;;;;;;;1.08;100.00;147942.84;1860399;77;20979;-64
2022/11/28 00:04:55;;;;;;;13.98;7.95;;;;;;;1.07;100.00;147940.27;1855304;76;20971;-64
2022/11/28 00:07:22;;;;;;;13.55;7.80;;;;;;;1.05;100.00;147935.13;1858076;76;21226;-64
2022/11/28 00:09:49;;;;;;;14.45;8.53;;;;;;;1.03;100.00;147929.97;1854916;76;21340;-64
2022/11/28 00:12:16;;;;;;;14.47;8.50;;;;;;;1.02;100.00;147927.41;1850978;76;20896;-63
2022/11/28 00:14:44;;;;;;;13.30;7.70;;;;;;;0.99;100.00;147919.63;1852550;76;21006;-63
2022/11/28 00:17:12;;;;;;;14.33;8.18;;;;;;;0.97;100.00;147914.48;1849958;76;20951;-64
2022/11/28 00:19:40;;;;;;;13.38;7.40;;;;;;;0.96;100.00;147913.22;1849991;76;21001;-64
2022/11/28 00:22:06;;;;;;;14.83;7.92;;;;;;;0.94;100.00;147908.06;1854615;76;20956;-64
2022/11/28 00:24:33;;;;;;;14.73;7.85;;;;;;;0.93;100.00;147904.19;1860193;76;21018;-63
2022/11/28 00:27:00;;;;;;;13.50;6.97;;;;;;;0.90;100.00;147897.78;1860208;76;20889;-64
2022/11/28 00:29:27;;;;;;;14.47;7.50;;;;;;;0.90;100.00;147896.47;1852559;76;20917;-63
2022/11/28 00:31:55;;;;;;;13.28;7.90;;;;;;;0.89;100.00;147893.89;1860274;77;21230;-63
2022/11/28 00:34:21;;;;;;;14.55;8.38;;;;;;;0.90;100.00;147896.47;1854886;76;20869;-64
2022/11/28 00:36:48;;;;;;;15.50;8.60;;;;;;;0.89;100.00;147893.89;1860316;77;21424;-63
2022/11/28 00:39:16;;;;;;;16.25;7.85;;;;;;;0.88;100.00;147891.31;1855171;76;20888;-64
2022/11/28 00:41:43;;;;;;;13.83;7.87;;;;;;;0.88;100.00;147892.58;1841878;76;20919;-64
2022/11/28 00:44:09;;;;;;;13.28;7.90;;;;;;;0.88;100.00;147891.31;1839340;76;21092;-64
2022/11/28 00:46:36;;;;;;;14.87;8.33;;;;;;;0.88;100.00;147891.31;1852185;77;20880;-64
2022/11/28 00:49:05;;;;;;;13.88;7.95;;;;;;;0.88;100.00;147891.31;1844632;76;21460;-64
2022/11/28 00:51:33;;;;;;;16.90;8.45;;;;;;;0.88;100.00;147891.31;1844597;77;21012;-64
2022/11/28 00:54:01;;;;;;;19.07;8.60;;;;;;;0.87;100.00;147888.75;1841381;76;21401;-64
2022/11/28 00:56:34;;;;;;;13.50;8.10;;;;;;;0.88;100.00;147891.31;1853438;77;21228;-64
2022/11/28 00:59:01;;;;;;;14.83;8.20;;;;;;;0.87;100.00;147888.75;1860331;77;20889;-65
2022/11/28 08:08:30;;;;;;;34.00;16.97;;;;;;;2.26;100.00;148236.66;1813394;78;23186;-65
2022/11/28 08:11:00;;;;;;;42.38;20.35;;;;;;;2.28;100.00;148240.56;1815788;78;21029;-65
2022/11/28 08:13:27;;;;;;;31.20;15.75;;;;;;;2.30;100.00;148245.70;1814920;78;20937;-65
2022/11/28 08:15:54;;;;;;;31.27;16.27;;;;;;;2.32;100.00;148249.55;1812736;78;20870;-64
2022/11/28 08:18:21;;;;;;;27.32;15.10;;;;;;;2.31;100.00;148246.97;1806128;78;21146;-65
2022/11/28 08:20:48;;;;;;;30.25;14.93;;;;;;;2.32;100.00;148250.86;1814762;78;21462;-65
2022/11/28 08:23:15;;;;;;;32.42;15.85;;;;;;;2.36;100.00;148261.16;1812816;78;20913;-67
2022/11/28 08:25:42;;;;;;;33.28;16.52;;;;;;;2.39;100.00;148267.63;1814853;78;20937;-66
2022/11/28 08:28:09;;;;;;;34.00;16.70;;;;;;;2.41;100.00;148272.78;1812841;78;21378;-66
2022/11/28 08:30:36;;;;;;;33.23;16.80;;;;;;;2.43;100.00;148277.94;1814000;78;21881;-65
2022/11/28 08:33:03;;;;;;;36.88;17.10;;;;;;;2.48;100.00;148290.83;1807373;78;21805;-66
2022/11/28 08:35:30;;;;;;;33.02;16.32;;;;;;;2.49;100.00;148293.41;1805506;78;20905;-66
2022/11/28 08:37:57;;;;;;;41.75;18.80;;;;;;;2.50;100.00;148295.97;1811672;78;20964;-66
2022/11/28 08:40:24;;;;;;;46.48;20.32;;;;;;;2.52;100.00;148299.88;1814677;78;20960;-66
2022/11/28 08:42:51;;;;;;;38.20;17.57;;;;;;;2.54;100.00;148306.34;1813987;78;21260;-65
2022/11/28 08:45:18;;;;;;;48.58;19.37;;;;;;;2.56;100.00;148311.48;1806368;78;21076;-65
2022/11/28 08:47:45;;;;;;;48.38;21.27;;;;;;;2.56;100.00;148311.48;1816382;78;21374;-67
2022/11/28 08:50:11;;;;;;;42.85;19.65;;;;;;;2.54;100.00;148306.34;1815238;78;20933;-67
2022/11/28 08:52:38;;;;;;;39.38;18.92;;;;;;;2.55;100.00;148307.59;1814663;79;20960;-67
2022/11/28 08:55:07;;;;;;;38.80;18.02;;;;;;;2.54;100.00;148306.34;1811375;78;21151;-66
2022/11/28 08:57:34;;;;;;;39.33;18.57;;;;;;;2.54;100.00;148305.02;1809009;78;21604;-66
2022/11/28 09:00:01;;;;;;;45.20;19.85;;;;;;;2.53;100.00;148302.44;1810726;78;20981;-67
2022/11/28 09:02:28;;;;;;;44.93;19.73;;;;;;;2.55;100.00;148307.59;1806744;78;20921;-66
2022/11/28 09:04:55;;;;;;;49.88;20.08;;;;;;;2.55;100.00;148308.91;1812003;79;20869;-64
2022/11/28 09:07:22;;;;;;;44.45;17.73;;;;;;;2.55;100.00;148308.91;1815246;78;21135;-65
2022/11/28 09:09:49;;;;;;;42.00;19.00;;;;;;;2.57;100.00;148314.06;1813282;78;21552;-64
2022/11/28 09:12:17;;;;;;;47.93;19.35;;;;;;;2.58;100.00;148316.64;1823020;78;21042;-65
2022/11/28 09:14:50;;;;;;;47.65;21.48;;;;;;;2.58;100.00;148315.33;1816386;78;20981;-65
2022/11/28 09:17:16;;;;;;;43.70;19.50;;;;;;;2.62;100.00;148324.38;1813332;79;21004;-67
2022/11/28 09:19:43;;;;;;;39.75;18.40;;;;;;;2.62;100.00;148324.38;1814703;79;21278;-65
2022/11/28 09:22:10;;;;;;;45.12;20.90;;;;;;;2.64;100.00;148329.53;1810964;78;20940;-64
2022/11/28 09:24:38;;;;;;;42.27;18.98;;;;;;;2.63;100.00;148328.22;1815306;78;20999;-66
2022/11/28 09:27:05;;;;;;;44.85;18.57;;;;;;;2.65;100.00;148332.11;1808530;78;20977;-64
2022/11/28 09:29:31;;;;;;;34.98;17.75;;;;;;;2.63;100.00;148326.95;1812375;78;20900;-65
2022/11/28 09:31:58;;;;;;;36.45;17.32;;;;;;;2.62;100.00;148325.64;1811929;78;21187;-65
2022/11/28 09:34:24;;;;;;;34.92;16.60;;;;;;;2.63;100.00;148326.95;1812112;78;20996;-65
2022/11/28 09:36:51;;;;;;;36.38;17.32;;;;;;;2.64;100.00;148329.53;1813981;78;20936;-64
2022/11/28 09:39:18;;;;;;;39.05;17.32;;;;;;;2.64;100.00;148330.80;1820329;78;20889;-66
2022/11/28 09:42:38;;;;;;;38.60;16.80;;;;;;;2.64;100.00;148329.53;1817129;78;20815;-65
2022/11/28 09:45:11;;;;;;;38.23;18.42;;;;;;;2.62;100.00;148325.64;1812489;78;21239;-65
2022/11/28 09:47:39;;;;;;;38.15;18.30;;;;;;;2.61;100.00;148321.80;1805764;78;20992;-66
2022/11/28 09:50:19;;;;;;;38.50;17.52;;;;;;;2.61;100.00;148321.80;1815264;78;21055;-66
2022/11/28 09:53:07;;;;;;;49.25;21.10;;;;;;;2.62;100.00;148324.38;1823246;78;21038;-65
2022/11/28 09:55:43;;;;;;;60.88;22.75;;;;;;;2.64;100.00;148330.80;1813010;78;20869;-65
2022/11/28 09:58:57;;;;;;;49.55;21.20;;;;;;;2.66;100.00;148334.69;1809894;78;21215;-66
2022/11/28 10:02:03;;;;;;;54.80;19.45;;;;;;;2.68;100.00;148339.84;1820969;78;21162;-66
2022/11/28 10:04:42;;;;;;;;;;;;;;;2.70;100.00;148346.31;1825809;78;21405;-65
2022/11/28 10:07:19;;;;;;;32.35;17.00;;;;;;;2.74;100.00;148355.31;1818239;78;20082;-66
2022/11/28 10:10:18;;;;;;;32.33;15.70;;;;;;;2.76;100.00;148359.19;1812085;78;21026;-69
2022/11/28 10:13:10;;;;;;;33.75;16.48;;;;;;;2.78;100.00;148365.66;1822348;78;20874;-65
2022/11/28 10:15:59;;;;;;;42.05;17.00;;;;;;;2.83;100.00;148378.55;1817590;78;20910;-67
2022/11/28 10:18:49;;;;;;;36.17;16.57;;;;;;;2.86;100.00;148386.28;1810922;79;20944;-67
2022/11/28 10:21:33;;;;;;;45.52;16.70;;;;;;;2.90;100.00;148394.02;1813750;78;20913;-64
2022/11/28 10:24:14;;;;;;;39.75;16.55;;;;;;;2.92;100.00;148399.17;1808114;78;21470;-67
2022/11/28 10:26:44;;;;;;;37.25;17.55;;;;;;;2.93;100.00;148401.75;1814692;79;21339;-68
2022/11/28 10:29:33;;;;;;;36.35;15.90;;;;;;;2.94;100.00;148404.33;1811262;78;20936;-65
2022/11/28 10:32:01;;;;;;;36.42;16.10;;;;;;;2.94;100.00;148404.33;1813412;78;20992;-67
2022/11/28 10:34:35;;;;;;;40.55;16.52;;;;;;;2.94;100.00;148404.33;1805113;78;21638;-66
2022/11/28 10:37:19;;;;;;;38.17;17.82;;;;;;;2.94;100.00;148404.33;1809754;78;21004;-66
2022/11/28 10:39:46;;;;;;;37.70;16.47;;;;;;;2.95;100.00;148406.91;1819589;78;21286;-66
2022/11/28 10:42:18;;;;;;;35.28;16.45;;;;;;;2.98;100.00;148414.64;1756761;78;21370;-66
2022/11/28 10:45:14;;;;;;;49.55;18.42;;;;;;;3.00;100.00;148419.84;1787474;78;20905;-66
2022/11/28 10:48:31;;;;;;;37.03;15.25;;;;;;;3.03;100.00;148427.58;1806675;78;21704;-65
2022/11/28 10:51:29;;;;;;;38.02;16.05;;;;;;;3.08;100.00;148440.47;1804320;78;21011;-65
2022/11/28 10:54:46;;;;;;;36.42;16.23;;;;;;;3.11;100.00;148448.20;1813303;78;21108;-65
2022/11/28 10:57:37;;;;;;;;;;;;;;;3.13;100.00;148453.36;1813426;78;20908;-66
2022/11/28 11:00:18;;;;;;;29.65;14.47;;;;;;;3.15;100.00;148458.52;1805667;78;20086;-64
2022/11/28 11:02:56;;;;;;;33.40;15.63;;;;;;;3.18;100.00;148464.98;1800135;78;21338;-65
2022/11/28 11:05:32;;;;;;;31.75;14.00;;;;;;;3.20;100.00;148468.83;1814137;78;21004;-65
2022/11/28 11:08:21;;;;;;;30.27;14.38;;;;;;;3.21;100.00;148472.72;1810755;78;21145;-66
2022/11/28 11:11:07;;;;;;;44.63;17.37;;;;;;;3.24;100.00;148479.19;1809710;78;20854;-66
2022/11/28 11:13:56;;;;;;;28.98;14.47;;;;;;;3.26;100.00;148484.34;1815492;78;20989;-65
2022/11/28 11:16:22;;;;;;;47.35;16.52;;;;;;;3.27;100.00;148486.94;1786431;78;20937;-67
2022/11/28 11:18:53;;;;;;;36.48;16.95;;;;;;;3.29;100.00;148493.34;1817850;78;20885;-66
2022/11/28 11:21:23;;;;;;;33.00;15.45;;;;;;;3.29;100.00;148492.09;1813194;78;21143;-65
2022/11/28 11:24:13;;;;;;;40.85;17.12;;;;;;;3.30;100.00;148495.92;1816270;78;21351;-65
2022/11/28 11:26:43;;;;;;;39.13;16.32;;;;;;;3.31;100.00;148497.25;1814690;78;21021;-61
2022/11/28 11:29:34;;;;;;;42.48;16.27;;;;;;;3.31;100.00;148497.25;1813777;78;20976;-62
2022/11/28 11:32:04;;;;;;;33.85;14.40;;;;;;;3.33;100.00;148501.13;1802964;78;21110;-62
2022/11/28 11:34:43;;;;;;;36.50;16.30;;;;;;;3.35;100.00;148507.56;1817584;78;21125;-62
2022/11/28 11:37:20;;;;;;;33.90;16.23;;;;;;;3.36;100.00;148508.87;1811459;78;21661;-62
2022/11/28 11:39:51;;;;;;;39.48;16.80;;;;;;;3.37;100.00;148511.45;1810054;78;21425;-64
2022/11/28 11:42:27;;;;;;;39.85;15.88;;;;;;;3.36;100.00;148510.14;1811912;78;20921;-62
2022/11/28 11:44:54;;;;;;;41.02;15.28;;;;;;;3.37;100.00;148512.72;1805937;78;20944;-63
2022/11/28 11:47:42;;;;;;;40.78;16.52;;;;;;;3.41;100.00;148521.77;1814600;79;21707;-63
2022/11/28 11:50:19;;;;;;;43.98;16.90;;;;;;;3.43;100.00;148528.23;1813665;78;20933;-61
2022/11/28 11:53:12;;;;;;;35.30;15.98;;;;;;;3.47;100.00;148535.97;1819172;78;21480;-63
2022/11/28 11:55:51;;;;;;;43.20;16.07;;;;;;;3.49;100.00;148541.12;1814654;78;21338;-62
2022/11/28 11:58:25;;;;;;;36.23;14.95;;;;;;;3.50;100.00;148543.72;1802740;78;20937;-63
2022/11/28 12:00:55;;;;;;;30.57;15.38;;;;;;;3.51;100.00;148546.28;1809798;78;21775;-61
2022/11/28 12:03:36;;;;;;;35.03;14.93;;;;;;;3.52;100.00;148548.87;1811013;78;20963;-63
2022/11/28 12:06:16;;;;;;;36.13;16.42;;;;;;;3.54;100.00;148554.03;1807737;78;21019;-62
2022/11/28 12:08:53;;;;;;;36.05;15.18;;;;;;;3.55;100.00;148556.61;1818398;78;21323;-63
2022/11/28 12:11:35;;;;;;;38.83;16.52;;;;;;;3.58;100.00;148564.34;1814520;78;21434;-61
2022/11/28 12:14:33;;;;;;;59.67;19.02;;;;;;;3.59;100.00;148566.92;1799551;78;21909;-62
2022/11/28 12:17:27;;;;;;;38.02;16.23;;;;;;;3.61;100.00;148572.09;1812405;78;20889;-62
2022/11/28 12:20:42;;;;;;;36.08;16.32;;;;;;;3.62;100.00;148574.66;1815215;79;20901;-63
2022/11/28 12:23:33;;;;;;;37.67;14.95;;;;;;;3.65;100.00;148581.14;1810801;79;20892;-63
2022/11/28 12:26:30;;;;;;;38.42;16.23;;;;;;;3.67;100.00;148587.61;1814688;79;20995;-63
2022/11/28 12:29:31;;;;;;;39.80;16.35;;;;;;;3.70;100.00;148594.03;1804935;78;21161;-63
2022/11/28 12:32:12;;;;;;;34.83;16.07;;;;;;;3.73;100.00;148601.77;1814462;78;21390;-63
2022/11/28 12:35:12;;;;;;;40.00;16.55;;;;;;;3.75;100.00;148605.66;1815024;78;20940;-61
2022/11/28 12:38:25;;;;;;;44.90;18.15;;;;;;;3.78;100.00;148613.41;1811753;78;20976;-62
2022/11/28 12:41:12;;;;;;;34.67;15.95;;;;;;;3.82;100.00;148623.72;1816034;78;21315;-63
2022/11/28 12:43:57;;;;;;;47.70;17.48;;;;;;;3.86;100.00;148635.36;1814714;78;21299;-63
2022/11/28 12:46:56;;;;;;;38.38;17.95;;;;;;;3.87;100.00;148636.67;1814555;78;20850;-63
2022/11/28 12:49:40;;;;;;;39.40;16.82;;;;;;;3.89;100.00;148641.83;1719620;81;21116;-63
2022/11/28 12:52:42;;;;;;;36.90;16.23;;;;;;;3.92;100.00;148648.25;1746878;81;21605;-63
2022/11/28 12:55:29;;;;;;;32.88;16.35;;;;;;;3.93;100.00;148652.16;1796487;78;21001;-63
2022/11/28 12:58:33;;;;;;;31.80;15.72;;;;;;;3.95;100.00;148657.31;1813905;78;21888;-62
2022/11/28 13:01:05;;;;;;;34.27;16.35;;;;;;;3.97;100.00;148661.16;1810544;78;20924;-62
2022/11/28 13:03:58;;;;;;;37.98;15.20;;;;;;;3.99;100.00;148666.36;1809514;78;20999;-62
2022/11/28 13:06:52;;;;;;;37.60;17.45;;;;;;;4.00;100.00;148670.20;1770870;78;21358;-62
2022/11/28 13:09:36;;;;;;;33.00;16.45;;;;;;;4.04;100.00;148677.95;1817831;78;21038;-61
2022/11/28 13:12:17;;;;;;;34.18;16.52;;;;;;;4.05;100.00;148680.53;1806129;78;21135;-61
2022/11/28 13:15:08;;;;;;;43.05;17.05;;;;;;;4.05;100.00;148680.53;1786161;78;21048;-62
2022/11/28 13:17:58;;;;;;;38.90;16.00;;;;;;;4.06;100.00;148683.11;1819726;78;20881;-62
2022/11/28 13:20:41;;;;;;;31.42;15.55;;;;;;;4.06;100.00;148684.42;1801870;78;20877;-65
2022/11/28 13:23:21;;;;;;;42.05;16.27;;;;;;;4.07;100.00;148685.69;1804231;78;20999;-61
2022/11/28 13:26:11;;;;;;;48.55;17.90;;;;;;;4.08;100.00;148688.27;1801293;78;21783;-61
2022/11/28 13:28:49;;;;;;;37.00;15.55;;;;;;;4.08;100.00;148688.27;1801312;78;21059;-62
2022/11/28 13:31:51;;;;;;;30.35;13.88;;;;;;;4.08;100.00;148688.27;1806201;79;20972;-62
2022/11/28 13:34:18;;;;;;;28.35;12.88;;;;;;;4.10;100.00;148694.75;1796618;78;21039;-63
2022/11/28 13:38:43;;;;;;;38.33;14.53;;;;;;;4.15;100.00;148707.66;1850238;76;26762;-93
2022/11/28 13:41:43;;;;;;;33.70;13.90;;;;;;;4.13;100.00;148701.22;1820403;77;20980;-93
2022/11/28 13:44:24;;;;;;;20.90;9.78;;;;;;;4.17;100.00;148711.53;1819247;77;22253;-94
2022/11/28 13:46:52;;;;;;;20.15;9.55;;;;;;;4.21;100.00;148720.59;1811242;77;21117;-94
2022/11/28 13:49:25;;;;;;;18.07;9.18;;;;;;;4.25;100.00;148732.19;1807588;78;20976;-92
2022/11/28 13:52:25;;;;;;;19.92;9.50;;;;;;;4.26;100.00;148734.77;1816091;77;20858;-92
2022/11/28 13:54:55;;;;;;;15.32;8.70;;;;;;;4.31;100.00;148746.41;1714850;80;21057;-93
2022/11/28 13:57:28;;;;;;;17.20;7.75;;;;;;;4.33;100.00;148751.56;1798932;77;21107;-91
2022/11/28 14:00:00;;;;;;;12.23;7.62;;;;;;;4.33;100.00;148751.56;1814030;77;20894;-92
2022/11/28 14:02:43;;;;;;;18.75;8.63;;;;;;;4.30;100.00;148745.09;1800151;78;20957;-92
2022/11/28 14:05:37;;;;;;;15.23;6.97;;;;;;;4.29;100.00;148742.50;1811532;78;20925;-92
2022/11/28 14:08:04;;;;;;;15.00;7.55;;;;;;;4.27;100.00;148737.34;1806994;78;21555;-90
2022/11/28 14:11:04;;;;;;;15.45;8.55;;;;;;;4.24;100.00;148729.61;1801866;78;21267;-91
2022/11/28 14:13:47;;;;;;;25.08;8.53;;;;;;;4.19;100.00;148716.70;1809602;78;20993;-90
2022/11/28 14:16:46;;;;;;;19.27;8.35;;;;;;;4.19;100.00;148716.70;1806293;78;20981;-91
2022/11/28 14:19:43;;;;;;;17.37;7.95;;;;;;;4.17;100.00;148711.53;1801773;78;21480;-90
2022/11/28 19:35:15;;;;;;;17.07;5.33;;;;;;;6.68;100.00;-9812.91;1811045;78;20929;-89
2022/11/28 19:37:43;;;;;;;12.82;5.33;;;;;;;6.69;100.00;-9317.86;1811715;78;21596;-88
2022/11/28 19:40:10;;;;;;;12.07;5.22;;;;;;;6.74;100.00;-8988.14;1807246;78;20968;-89
2022/11/28 19:42:38;;;;;;;12.30;5.75;;;;;;;6.73;100.00;-8492.85;1811439;78;21044;-90
2022/11/28 19:45:06;;;;;;;13.03;4.97;;;;;;;6.80;100.00;-7997.89;1806839;78;21396;-89
2022/11/28 19:47:33;;;;;;;10.58;5.15;;;;;;;6.79;100.00;-7502.41;1810589;78;21137;-89
2022/11/28 19:50:00;;;;;;;13.28;5.20;;;;;;;6.81;100.00;-7172.17;1800278;78;21608;-90
2022/11/28 19:52:27;;;;;;;10.68;4.95;;;;;;;6.84;100.00;-6676.70;1807305;78;21027;-90
2022/11/28 19:54:54;;;;;;;13.10;5.40;;;;;;;6.85;100.00;-6181.04;1803355;78;20992;-89
2022/11/28 19:57:22;;;;;;;11.40;4.58;;;;;;;6.87;100.00;-5189.43;1805283;78;21359;-88
2022/11/28 19:59:49;;;;;;;11.08;5.03;;;;;;;6.87;100.00;-4528.17;1812866;78;20832;-88
2022/11/28 20:02:19;;;;;;;13.53;5.17;;;;;;;6.90;100.00;-4197.48;1804994;78;20991;-89
2022/11/28 20:04:47;;;;;;;12.50;4.75;;;;;;;6.92;100.00;-3535.96;1805177;78;21098;-88
2022/11/28 20:07:14;;;;;;;12.10;4.40;;;;;;;6.92;100.00;-2874.31;1802798;78;21504;-92
2022/11/28 20:09:42;;;;;;;12.60;5.00;;;;;;;6.92;100.00;-1881.59;1784117;78;21291;-91
2022/11/28 20:12:09;;;;;;;14.20;4.42;;;;;;;6.94;100.00;-226.24;1807570;78;20968;-87
2022/11/28 20:14:35;;;;;;;10.05;4.35;;;;;;;6.94;100.00;-226.24;1799400;78;20928;-88
2022/11/28 20:17:03;;;;;;;9.58;4.42;;;;;;;6.93;100.00;1595.43;1807829;78;20914;-88
2022/11/28 20:19:32;;;;;;;10.98;4.37;;;;;;;6.95;100.00;3915.73;1783254;78;21071;-88
2022/11/28 20:21:59;;;;;;;13.70;5.28;;;;;;;6.96;100.00;5574.20;1801379;78;21189;-88
2022/11/28 20:24:29;;;;;;;12.93;4.62;;;;;;;6.97;100.00;7233.39;1806965;78;20921;-88
2022/11/28 20:26:56;;;;;;;11.68;4.30;;;;;;;6.96;100.00;8893.12;1799846;78;21005;-88
2022/11/28 20:29:26;;;;;;;10.00;4.50;;;;;;;6.97;100.00;10388.01;1794067;78;21075;-88
2022/11/28 20:31:55;;;;;;;11.60;4.78;;;;;;;6.93;100.00;13544.62;1799980;78;21087;-89
2022/11/28 20:34:22;;;;;;;11.38;4.25;;;;;;;6.94;100.00;16705.27;1809247;78;21219;-92
2022/11/28 20:36:52;;;;;;;15.05;4.10;;;;;;;6.95;100.00;18536.79;1805228;78;21029;-92
2022/11/28 20:39:19;;;;;;;10.35;4.20;;;;;;;6.96;100.00;19036.76;1794717;78;20976;-88
2022/11/28 20:41:46;;;;;;;9.40;4.17;;;;;;;6.96;100.00;20702.83;1808955;78;20913;-89
2022/11/28 20:44:13;;;;;;;11.05;4.42;;;;;;;6.96;100.00;23036.46;1803782;78;21154;-89
2022/11/28 20:46:42;;;;;;;16.10;4.50;;;;;;;6.99;100.00;24205.07;1808357;78;21152;-92
2022/11/28 20:49:09;;;;;;;13.40;4.03;;;;;;;6.96;100.00;28877.42;1803012;78;21162;-88
2022/11/28 20:51:35;;;;;;;17.35;4.70;;;;;;;6.96;100.00;28877.42;1781361;78;21484;-89
2022/11/28 20:54:04;;;;;;;9.58;4.03;;;;;;;6.96;100.00;31384.23;1806053;78;20959;-88
2022/11/28 20:56:33;;;;;;;11.15;4.37;;;;;;;6.96;100.00;33892.63;1808392;78;20988;-88
2022/11/28 20:59:01;;;;;;;10.85;4.60;;;;;;;6.96;100.00;37742.16;1804075;78;21183;-88
2022/11/28 21:01:34;;;;;;;13.18;5.00;;;;;;;6.94;100.00;40756.68;1799011;78;21028;-89
2022/11/28 21:04:02;;;;;;;15.15;4.40;;;;;;;6.88;100.00;46456.58;1806362;78;21022;-89
2022/11/28 21:06:29;;;;;;;10.50;4.42;;;;;;;6.88;100.00;46456.58;1808367;78;21066;-89
2022/11/28 21:08:56;;;;;;;12.55;4.37;;;;;;;6.88;100.00;49143.98;1807335;78;21535;-88
2022/11/28 21:11:24;;;;;;;14.60;4.30;;;;;;;6.86;100.00;48134.21;1804521;78;21886;-88
2022/11/28 21:13:51;;;;;;;17.75;4.58;;;;;;;6.86;100.00;48973.76;1803657;78;20993;-88
2022/11/28 21:16:20;;;;;;;10.18;4.22;;;;;;;6.85;100.00;49477.38;1806672;78;20996;-92
2022/11/28 21:18:50;;;;;;;15.48;5.30;;;;;;;6.83;100.00;50820.13;1802125;78;21390;-93
2022/11/28 21:21:21;;;;;;;10.00;4.67;;;;;;;6.84;100.00;51157.26;1807063;78;20991;-92
2022/11/28 21:23:48;;;;;;;10.72;4.10;;;;;;;6.83;100.00;51492.59;1808063;78;21210;-92
2022/11/28 21:26:20;;;;;;;19.75;4.65;;;;;;;6.81;100.00;54854.45;1812982;78;21093;-94
2022/11/28 21:28:50;;;;;;;11.53;4.28;;;;;;;6.78;100.00;58219.39;1810924;78;21041;-93
2022/11/28 21:31:20;;;;;;;20.40;4.40;;;;;;;6.76;100.00;60581.67;1804587;78;20960;-93
2022/11/28 21:33:55;;;;;;;9.50;4.50;;;;;;;6.74;100.00;61311.75;1801639;78;21023;-93
2022/11/28 21:36:22;;;;;;;10.13;4.55;;;;;;;6.71;100.00;62763.09;1811625;78;21257;-92
2022/11/28 21:38:55;;;;;;;10.35;3.92;;;;;;;6.70;100.00;63436.67;1804691;78;21033;-94
2022/11/28 21:41:22;;;;;;;9.90;4.85;;;;;;;6.70;100.00;62761.41;1809126;78;20897;-89
2022/11/28 21:43:49;;;;;;;12.80;4.85;;;;;;;6.69;100.00;62928.95;1796669;78;21102;-88
2022/11/28 21:46:17;;;;;;;11.20;4.70;;;;;;;6.68;100.00;64277.37;1785002;79;21564;-88
2022/11/28 21:48:44;;;;;;;10.55;4.42;;;;;;;6.68;100.00;65796.23;1803058;78;21823;-88
2022/11/28 21:51:21;;;;;;;12.60;4.62;;;;;;;6.66;100.00;64781.87;1807701;78;21049;-88
2022/11/28 21:53:48;;;;;;;14.18;5.70;;;;;;;6.71;100.00;63775.20;1805591;78;20970;-89
2022/11/28 21:56:15;;;;;;;11.10;4.87;;;;;;;6.71;100.00;64787.61;1805104;78;20932;-89
2022/11/28 21:58:43;;;;;;;13.18;4.75;;;;;;;6.70;100.00;65798.56;1811014;78;21045;-93
2022/11/28 22:01:12;;;;;;;12.53;5.17;;;;;;;6.68;100.00;67485.27;1811707;78;21857;-93
2022/11/28 22:03:39;;;;;;;12.88;4.92;;;;;;;6.67;100.00;69173.31;1805351;78;21074;-92
2022/11/28 22:06:19;;;;;;;10.43;4.72;;;;;;;6.66;100.00;70692.47;1807875;78;21057;-94
2022/11/28 22:08:47;;;;;;;12.73;5.58;;;;;;;6.65;100.00;72720.23;1807966;78;21170;-92
2022/11/28 22:11:14;;;;;;;15.95;5.95;;;;;;;6.63;100.00;74071.63;1807806;77;21099;-88
2022/11/28 22:13:48;;;;;;;12.43;5.37;;;;;;;6.61;100.00;73899.81;1800650;78;21299;-92
2022/11/28 22:16:17;;;;;;;11.83;5.72;;;;;;;6.61;100.00;74575.97;1811213;78;20930;-87
2022/11/28 22:18:46;;;;;;;11.90;4.95;;;;;;;6.59;100.00;73897.88;1789431;78;20886;-88
2022/11/28 22:21:15;;;;;;;12.80;6.00;;;;;;;6.61;100.00;71193.34;1802428;78;20982;-89
2022/11/28 22:23:44;;;;;;;17.07;6.20;;;;;;;6.58;100.00;71528.28;1805009;78;21367;-89
2022/11/28 22:26:13;;;;;;;15.20;5.97;;;;;;;6.56;100.00;70174.24;1812195;78;21304;-88
2022/11/28 22:28:41;;;;;;;12.43;5.42;;;;;;;6.53;100.00;69156.19;1810282;78;20966;-89
2022/11/28 22:31:12;;;;;;;13.90;6.03;;;;;;;6.49;100.00;71010.48;1817082;78;20953;-89
2022/11/28 22:33:42;;;;;;;12.05;5.50;;;;;;;6.47;100.00;70332.03;1791933;79;21154;-88
2022/11/28 22:36:12;;;;;;;11.88;5.47;;;;;;;6.44;100.00;67964.30;1805439;78;20958;-88
2022/11/28 22:38:39;;;;;;;15.35;5.75;;;;;;;6.43;100.00;64587.91;1807178;78;21801;-88
2022/11/28 22:41:16;;;;;;;15.55;5.83;;;;;;;6.42;100.00;63068.48;1808824;78;21068;-89
2022/11/28 22:43:44;;;;;;;13.55;6.00;;;;;;;6.42;100.00;62226.17;1803519;78;20952;-89
2022/11/28 22:46:12;;;;;;;16.97;6.85;;;;;;;6.42;100.00;61782.43;1803311;78;21455;-88
2022/11/28 22:48:39;;;;;;;13.30;6.17;;;;;;;6.40;100.00;62223.40;1802812;78;21501;-89
2022/11/28 22:51:09;;;;;;;15.28;6.28;;;;;;;6.40;100.00;63403.44;1801395;78;21886;-89
2022/11/28 22:53:36;;;;;;;13.70;5.95;;;;;;;6.38;100.00;64412.95;1811160;78;21045;-89
2022/11/28 22:56:04;;;;;;;15.25;6.37;;;;;;;6.37;100.00;64075.09;1808081;78;20926;-88
2022/11/28 22:58:36;;;;;;;17.10;6.58;;;;;;;6.37;100.00;63905.90;1806432;78;21049;-88
2022/11/28 23:01:09;;;;;;;14.50;6.20;;;;;;;6.36;100.00;63567.54;1807853;78;20949;-88
2022/11/28 23:03:36;;;;;;;13.93;6.42;;;;;;;6.34;100.00;63734.45;1804323;78;21252;-88
2022/11/28 23:06:07;;;;;;;17.35;6.65;;;;;;;6.32;100.00;65924.72;1807640;78;21044;-88
2022/11/28 23:08:34;;;;;;;13.35;5.62;;;;;;;6.30;100.00;67610.46;1804811;78;20980;-89
2022/11/28 23:11:10;;;;;;;18.62;5.87;;;;;;;6.30;100.00;67778.65;1808075;78;20946;-89
2022/11/28 23:13:38;;;;;;;15.55;6.10;;;;;;;6.32;100.00;66767.80;1810861;78;20932;-88
2022/11/28 23:16:15;;;;;;;14.98;6.78;;;;;;;6.32;100.00;64575.30;1804563;78;21254;-88
2022/11/28 23:18:44;;;;;;;14.80;6.03;;;;;;;6.33;100.00;65251.10;1805875;78;20986;-88
2022/11/28 23:21:11;;;;;;;14.87;6.15;;;;;;;6.30;100.00;67441.68;1811357;78;20886;-88
2022/11/28 23:23:38;;;;;;;12.98;5.37;;;;;;;6.29;100.00;69973.08;1810629;78;21095;-88
2022/11/28 23:26:08;;;;;;;13.03;6.03;;;;;;;6.27;100.00;71491.03;1808202;78;21140;-88
2022/11/28 23:28:36;;;;;;;14.40;5.92;;;;;;;6.26;100.00;72841.17;1811034;78;21468;-88
2022/11/28 23:31:11;;;;;;;17.10;6.08;;;;;;;6.25;100.00;71488.52;1806850;78;21050;-88
2022/11/28 23:33:38;;;;;;;14.15;6.10;;;;;;;6.25;100.00;70812.71;1809779;78;20928;-87
2022/11/28 23:36:20;;;;;;;13.15;5.50;;;;;;;6.24;100.00;73008.27;1807550;78;21354;-93
2022/11/28 23:38:50;;;;;;;15.05;5.87;;;;;;;6.22;100.00;75542.16;1809401;78;20983;-92
2022/11/28 23:41:17;;;;;;;17.07;5.92;;;;;;;6.21;100.00;76386.71;1808374;78;21808;-88
2022/11/28 23:43:44;;;;;;;16.32;5.62;;;;;;;6.20;100.00;77231.45;1807343;78;20863;-89
2022/11/28 23:46:11;;;;;;;11.48;5.42;;;;;;;6.18;100.00;81291.96;1806325;78;21245;-89
2022/11/28 23:48:38;;;;;;;18.02;6.37;;;;;;;6.17;100.00;82307.98;1807710;78;20960;-90
2022/11/28 23:51:05;;;;;;;15.30;5.90;;;;;;;6.18;100.00;81292.69;1800532;78;21037;-91
2022/11/28 23:53:33;;;;;;;14.87;6.03;;;;;;;6.20;100.00;79601.59;1800374;78;21342;-92
2022/11/28 23:56:10;;;;;;;18.05;6.35;;;;;;;6.19;100.00;79600.19;1811116;78;21049;-91
2022/11/28 23:58:37;;;;;;;12.75;5.95;;;;;;;6.18;100.00;81462.13;1808010;78;21425;-92
